LJPZ METAR and TAF | Updated Today

LJPZ METAR

Portoroz Airport

Observation time: 15 min. ago

LJPZ 291130Z 05007KT 010V100 9999 SCT045 SCT120 21/10 Q1005

Need help? Read our tutorial on how to read METARs or read the parsed version below.

Portoroz Airport (LJPZ) METAR

  • Weather conditions on Sun, 29 May 2022 11:30:00 +0000 (15 min. ago):
  • Present conditions: Dry
  • Clouds: Scattered at 1372 meters; scattered at 3658 meters
  • Visibility: Greater than 10 km
  • Wind: 50 degrees at 7 knots
  • Temperature: 21 celsius
  • Dew point: 10 celsius
  • Pressure: 1005 millibars
  • Remarks: None


Useful to know...

LJPZ TAF

Portoroz Airport

TAF LJPZ 290800Z 2909/2918 09005KT 9999 SCT040 BKN080
Observation time: 3:45 hr. ago
Need help? Read our tutorial on how to read TAFs or read the parsed version below.

Parsed version of TAF for Portoroz Airport (LJPZ)

  • From 29 May at 09:00 UTC, to day 29 of the month at 18:00 UTC
  • Clouds: Scattered at 1219 meters; broken sky at 2438 meters
  • Visibility: Greater than 10 km
  • Wind: 90 degrees at 5